• Join FlightAware (Why Join?)
  • Login
  • US Flag 
Rudolph Flight #1: Arrived! 
07:37PM EST


 

Airport Tracker/Info


-or-


 

Live Flight TrackerFlight Track Log ✈ SKQ78 ✈ 03-Jul-2013 ✈ KCRW - KOSU

Flight Track Log - Related Links

Times and Time Zones

All times are in EDT time to prevent confusion due to time zone crossing. See the SKQ78 flight status page for this flight to view local times or setup timezone preferences in your user account.

Time Position Orientation Groundspeed Altitude Reporting Facility
EDT Latitude Longitude Course Direction KTS MPH feet Rate Location/Type
07:08AM 38.3850 -81.6381 330° Northwest 166 191 2,900  Level Indianapolis Center
07:09AM 38.4214 -81.6689 326° Northwest 158 182 4,800 1,740 Climbing Indianapolis Center
07:10AM 38.4592 -81.7000 327° Northwest 160 184 6,500 1,620 Climbing Indianapolis Center
07:11AM 38.4992 -81.7331 327° Northwest 169 194 8,100 1,620 Climbing Indianapolis Center
07:12AM 38.5397 -81.7672 327° Northwest 172 198 9,800 1,560 Climbing Indianapolis Center
07:13AM 38.6588 -81.8316 330° Northwest  Level FlightAware Approximate
07:13AM 38.5831 -81.8019 328° Northwest 181 208 11,300  Level Indianapolis Center
07:14AM 38.6294 -81.8406 327° Northwest 200 230 12,000 300 Climbing Indianapolis Center
07:15AM 38.6861 -81.8878 327° Northwest 236 272 12,000  Level Indianapolis Center
07:16AM 38.7472 -81.9381 327° Northwest 257 296 12,000  Level Indianapolis Center
07:17AM 38.8078 -81.9889 327° Northwest 259 298 12,000  Level Indianapolis Center
07:18AM 38.8692 -82.0403 327° Northwest 262 302 12,000  Level Indianapolis Center
07:19AM 38.9453 -82.0969 330° Northwest 263 303 12,000  Level Indianapolis Center
07:20AM 39.0167 -82.1272 342° North 270 311 12,000  Level Indianapolis Center
07:21AM 39.0883 -82.1564 342° North 269 310 12,000 -60 Level Indianapolis Center
07:22AM 39.1594 -82.1875 341° North 268 308 11,900 -480 Descending Indianapolis Center
07:23AM 39.2342 -82.2186 342° North 281 323 11,100 -420 Descending Indianapolis Center
07:24AM 39.3075 -82.2494 342° North 277 319 11,100  Level Indianapolis Center
07:25AM 39.3786 -82.2794 342° North 267 307 11,100  Level Indianapolis Center
07:26AM 39.4486 -82.3103 341° North 262 302 11,100 -180 Level Indianapolis Center
07:27AM 39.5106 -82.3492 334° Northwest 267 307 10,800 -600 Descending Indianapolis Center
07:28AM 39.5544 -82.4286 306° West 269 310 9,900 -1,020 Descending Indianapolis Center
07:29AM 39.6047 -82.5194 306° West 265 305 8,800 -1,080 Descending Indianapolis Center
07:30AM 39.6469 -82.5981 305° West 262 302 7,800 -1,020 Descending Indianapolis Center
07:31AM 39.6881 -82.6753 305° West 260 299 6,800 -1,020 Descending Indianapolis Center
07:32AM 39.7278 -82.7528 304° West 258 297 5,800 -1,020 Descending Indianapolis Center
07:33AM 39.7689 -82.8303 305° West 259 298 4,800 -840 Descending Indianapolis Center
07:34AM 39.8097 -82.9058 305° West 256 295 4,100 -360 Descending Indianapolis Center
07:35AM 39.8492 -82.9775 306° West 247 284 4,100  Level Indianapolis Center
07:36AM 39.8872 -83.0475 305° West 239 275 4,100 -540 Level Indianapolis Center
07:37AM 39.9675 -83.0736 346° North 263 303 3,000 -1,080 Descending Indianapolis Center
07:38AM 40.0194 -83.0861 350° North 246 283 2,000 -840 Descending Indianapolis Center
07:39AM 40.0608 -83.1028 343° North 184 212 1,500 -420 Descending Indianapolis Center
07:40AM 40.0867 -83.0711 43° Northeast 160 184 1,200 -300 Descending Indianapolis Center
07:42AM 40.0798 -83.0732 193° South  Level Estimated